createdAt,value
2023-04-11T00:00:59.315Z,5.20
2023-04-11T00:03:27.963Z,4.79
2023-04-11T00:05:56.296Z,4.87
2023-04-11T00:08:24.180Z,4.56
2023-04-11T00:10:52.590Z,4.63
2023-04-11T00:13:20.626Z,4.70
2023-04-11T00:15:48.510Z,5.10
2023-04-11T00:18:17.263Z,4.81
2023-04-11T00:20:45.148Z,4.93
2023-04-11T00:23:13.275Z,4.53
2023-04-11T00:25:41.753Z,4.86
2023-04-11T00:28:10.347Z,4.77
2023-04-11T00:30:39.133Z,4.74
2023-04-11T00:33:07.512Z,4.75
2023-04-11T00:35:38.029Z,4.99
2023-04-11T00:38:06.328Z,4.87
2023-04-11T00:40:34.650Z,4.89
2023-04-11T00:43:02.543Z,4.47
2023-04-11T00:45:30.670Z,4.56
2023-04-11T00:47:59.101Z,4.06
2023-04-11T00:50:27.401Z,4.39
2023-04-11T00:52:55.937Z,3.92
2023-04-11T00:55:24.378Z,3.99
2023-04-11T00:57:54.308Z,4.05
2023-04-11T01:00:22.792Z,3.88
2023-04-11T01:02:51.386Z,3.83
2023-04-11T01:05:20.388Z,3.92
2023-04-11T01:07:50.771Z,3.95
2023-04-11T01:10:19.544Z,3.94
2023-04-11T01:12:47.794Z,4.46
2023-04-11T01:15:16.031Z,4.61
2023-04-11T01:17:44.491Z,3.94
2023-04-11T01:20:13.139Z,4.28
2023-04-11T01:22:42.203Z,4.09
2023-04-11T01:25:10.862Z,3.67
2023-04-11T01:27:38.918Z,3.52
2023-04-11T01:30:07.658Z,3.77
2023-04-11T01:32:36.107Z,3.91
2023-04-11T01:35:04.967Z,3.93
2023-04-11T01:37:33.084Z,3.55
2023-04-11T01:40:02.130Z,3.83
2023-04-11T01:42:31.028Z,3.07
2023-04-11T01:44:59.803Z,3.32
2023-04-11T01:47:28.152Z,3.40
2023-04-11T01:49:56.244Z,3.37
2023-04-11T01:52:25.236Z,3.41
2023-04-11T01:54:53.549Z,3.64
2023-04-11T01:57:21.635Z,3.31
2023-04-11T01:59:49.861Z,3.06
2023-04-11T02:02:18.552Z,3.11
2023-04-11T02:04:46.923Z,3.31
2023-04-11T02:07:15.524Z,3.11
2023-04-11T02:09:43.454Z,2.97
2023-04-11T02:12:11.675Z,3.04
2023-04-11T02:14:44.734Z,3.00
2023-04-11T02:17:14.369Z,3.17
2023-04-11T02:19:45.622Z,3.09
2023-04-11T02:22:14.324Z,3.09
2023-04-11T02:24:42.773Z,3.28
2023-04-11T02:27:11.350Z,2.94
2023-04-11T02:29:39.275Z,2.85
2023-04-11T02:32:07.753Z,2.95
2023-04-11T02:34:36.061Z,3.09
2023-04-11T02:37:04.473Z,3.16
2023-04-11T02:39:33.998Z,3.10
2023-04-11T02:42:01.990Z,2.98
2023-04-11T02:44:30.940Z,3.30
2023-04-11T02:47:00.379Z,3.48
2023-04-11T02:49:28.895Z,3.79
2023-04-11T02:51:57.354Z,3.56
2023-04-11T02:54:25.857Z,2.99
2023-04-11T02:56:56.081Z,2.99
2023-04-11T02:59:24.099Z,3.17
2023-04-11T03:02:00.921Z,3.04
2023-04-11T03:04:29.414Z,2.73
2023-04-11T03:06:59.145Z,2.73
2023-04-11T03:09:27.492Z,2.98
2023-04-11T03:11:56.251Z,2.72
2023-04-11T03:14:24.584Z,2.58
2023-04-11T03:16:52.582Z,2.55
2023-04-11T03:19:20.523Z,2.46
2023-04-11T03:21:48.934Z,2.94
2023-04-11T03:24:18.127Z,2.92
2023-04-11T03:26:46.089Z,2.78
2023-04-11T03:29:14.533Z,3.37
2023-04-11T03:31:43.260Z,3.23
2023-04-11T03:34:11.282Z,2.38
2023-04-11T03:36:41.473Z,2.29
2023-04-11T03:39:09.613Z,2.70
2023-04-11T03:41:37.667Z,2.95
2023-04-11T03:44:08.197Z,2.87
2023-04-11T03:46:36.471Z,2.61
2023-04-11T03:49:04.733Z,2.72
2023-04-11T03:51:33.834Z,2.72
2023-04-11T03:54:02.228Z,2.64
2023-04-11T03:56:30.727Z,2.68
2023-04-11T03:58:59.258Z,3.03
2023-04-11T04:01:27.817Z,2.78
2023-04-11T04:03:57.033Z,3.00
2023-04-11T04:06:27.201Z,2.66
2023-04-11T04:08:55.580Z,2.52
2023-04-11T04:11:24.032Z,2.90
2023-04-11T04:13:54.436Z,3.47
2023-04-11T04:16:22.872Z,3.58
2023-04-11T04:18:51.985Z,3.71
2023-04-11T04:21:20.801Z,3.38
2023-04-11T04:23:50.719Z,3.07
2023-04-11T04:26:25.358Z,3.59
2023-04-11T04:28:54.252Z,3.25
2023-04-11T04:31:26.030Z,3.24
2023-04-11T04:33:58.838Z,3.02
2023-04-11T04:36:28.723Z,3.23
2023-04-11T04:39:02.327Z,3.14
2023-04-11T04:41:36.560Z,3.21
2023-04-11T04:44:05.514Z,3.81
2023-04-11T04:46:37.051Z,4.59
2023-04-11T04:49:07.175Z,4.99
2023-04-11T04:51:37.294Z,5.07
2023-04-11T04:54:06.910Z,5.58
2023-04-11T04:56:35.351Z,6.42
2023-04-11T04:59:04.085Z,6.90
2023-04-11T05:01:33.263Z,8.25
2023-04-11T05:04:03.116Z,9.05
2023-04-11T05:06:32.759Z,9.05
2023-04-11T05:09:02.524Z,9.64
2023-04-11T05:11:30.755Z,9.71
2023-04-11T05:13:58.887Z,9.75
2023-04-11T05:16:27.732Z,10.33
2023-04-11T05:18:57.193Z,10.24
2023-04-11T05:21:25.318Z,10.24
2023-04-11T05:23:53.999Z,10.87
2023-04-11T05:26:22.516Z,10.02
2023-04-11T05:28:50.837Z,10.27
2023-04-11T05:31:19.377Z,10.94
2023-04-11T05:33:47.698Z,11.75
2023-04-11T05:36:16.203Z,11.28
2023-04-11T05:38:45.149Z,12.07
2023-04-11T05:41:13.217Z,12.85
2023-04-11T05:43:41.280Z,13.90
2023-04-11T05:46:10.029Z,13.08
2023-04-11T05:48:38.444Z,12.66
2023-04-11T05:51:08.109Z,12.41
2023-04-11T05:53:36.359Z,12.30
2023-04-11T05:56:04.587Z,12.16
2023-04-11T05:58:32.652Z,12.37
2023-04-11T06:01:01.135Z,12.18
2023-04-11T06:03:29.521Z,12.21
2023-04-11T06:05:57.606Z,12.06
2023-04-11T06:08:25.817Z,11.75
2023-04-11T06:10:54.196Z,11.87
2023-04-11T06:13:22.226Z,12.08
2023-04-11T06:15:50.367Z,12.27
2023-04-11T06:18:18.810Z,12.28
2023-04-11T06:20:47.380Z,12.27
2023-04-11T06:23:16.492Z,12.98
2023-04-11T06:25:45.806Z,13.48
2023-04-11T06:28:14.449Z,12.83
2023-04-11T06:30:42.375Z,13.12
2023-04-11T06:33:10.754Z,13.54
2023-04-11T06:35:38.891Z,14.61
2023-04-11T06:38:06.983Z,14.39
2023-04-11T06:40:35.613Z,14.47
2023-04-11T06:43:03.522Z,14.67
2023-04-11T06:45:31.900Z,15.23
2023-04-11T06:48:00.379Z,14.77
2023-04-11T06:50:28.449Z,15.07
2023-04-11T06:52:58.536Z,15.22
2023-04-11T06:55:27.360Z,14.78
2023-04-11T06:57:55.624Z,14.39
2023-04-11T07:00:23.914Z,14.65
2023-04-11T07:02:52.961Z,16.05
2023-04-11T07:05:21.344Z,17.33
2023-04-11T07:07:49.314Z,16.33
2023-04-11T07:10:17.722Z,18.02
2023-04-11T07:12:45.908Z,18.04
2023-04-11T07:15:13.884Z,17.56
2023-04-11T07:17:42.332Z,18.37
2023-04-11T07:20:12.112Z,18.18
2023-04-11T07:22:43.498Z,18.16
2023-04-11T07:25:11.887Z,17.85
2023-04-11T07:27:43.926Z,17.23
2023-04-11T07:30:12.885Z,17.45
2023-04-11T07:32:41.155Z,17.11
2023-04-11T07:35:09.735Z,16.36
2023-04-11T07:37:38.462Z,15.90
2023-04-11T07:40:10.370Z,15.30
2023-04-11T07:42:41.155Z,16.06
2023-04-11T07:45:09.686Z,15.68
2023-04-11T07:47:38.436Z,16.58
2023-04-11T07:50:07.579Z,16.21
2023-04-11T07:52:35.918Z,15.21
2023-04-11T07:55:04.664Z,15.34
2023-04-11T07:57:32.702Z,14.70
2023-04-11T08:00:00.731Z,15.39
2023-04-11T08:02:29.268Z,14.96
2023-04-11T08:04:57.974Z,14.71
2023-04-11T08:07:28.420Z,14.84
2023-04-11T08:09:57.900Z,15.06
2023-04-11T08:12:26.230Z,15.57
2023-04-11T08:14:54.285Z,15.35
2023-04-11T08:17:28.947Z,15.25
2023-04-11T08:19:57.948Z,15.52
2023-04-11T08:22:26.879Z,15.15
2023-04-11T08:24:54.953Z,15.09
2023-04-11T08:27:23.362Z,14.62
2023-04-11T08:29:51.374Z,15.21
2023-04-11T08:32:19.364Z,15.32
2023-04-11T08:34:47.659Z,15.86
2023-04-11T08:37:15.830Z,15.35
2023-04-11T08:39:44.947Z,15.27
2023-04-11T08:42:23.637Z,15.27
2023-04-11T08:44:56.094Z,15.62
2023-04-11T08:47:24.689Z,15.19
2023-04-11T08:49:53.148Z,15.83
2023-04-11T08:52:21.575Z,16.08
2023-04-11T08:54:52.535Z,15.87
2023-04-11T08:57:28.038Z,15.56
2023-04-11T08:59:57.839Z,15.51
2023-04-11T09:02:26.027Z,14.91
2023-04-11T09:04:54.865Z,15.82
2023-04-11T09:07:23.181Z,15.70
2023-04-11T09:09:51.267Z,15.20
2023-04-11T09:12:22.320Z,15.13
2023-04-11T09:14:50.694Z,15.59
2023-04-11T09:17:20.612Z,16.18
2023-04-11T09:19:49.357Z,16.84
2023-04-11T09:22:18.149Z,17.22
2023-04-11T09:25:02.417Z,17.80
2023-04-11T09:27:34.477Z,16.51
2023-04-11T09:30:02.645Z,17.04
2023-04-11T09:32:35.123Z,16.55
2023-04-11T09:35:24.359Z,17.19
2023-04-11T09:38:01.066Z,17.57
2023-04-11T09:40:32.065Z,18.03
2023-04-11T09:43:01.853Z,18.46
2023-04-11T09:45:38.196Z,19.14
2023-04-11T09:48:15.063Z,18.83
2023-04-11T09:50:46.195Z,19.19
2023-04-11T09:53:17.094Z,19.23
2023-04-11T09:55:48.141Z,20.06
2023-04-11T09:58:18.277Z,18.75
2023-04-11T10:00:47.853Z,19.06
2023-04-11T10:03:20.486Z,18.79
2023-04-11T10:05:49.993Z,20.24
2023-04-11T10:08:26.964Z,20.41
2023-04-11T10:10:57.063Z,20.44
2023-04-11T10:13:47.203Z,19.12
2023-04-11T10:16:20.552Z,20.25
2023-04-11T10:18:55.275Z,19.78
2023-04-11T10:21:34.295Z,18.43
2023-04-11T10:24:22.057Z,18.60
2023-04-11T10:27:05.433Z,20.32
2023-04-11T10:29:48.416Z,19.76
2023-04-11T10:32:22.394Z,19.58
2023-04-11T10:34:51.079Z,19.39
2023-04-11T10:37:19.894Z,19.79
2023-04-11T10:40:01.101Z,20.56
2023-04-11T10:42:46.960Z,22.09
2023-04-11T10:45:24.720Z,22.99
2023-04-11T10:48:02.617Z,21.78
2023-04-11T10:50:32.099Z,22.88
2023-04-11T10:53:02.015Z,23.47
2023-04-11T10:55:36.047Z,22.81
2023-04-11T10:58:14.206Z,22.74
2023-04-11T11:00:59.122Z,22.68
2023-04-11T11:03:30.767Z,23.79
2023-04-11T11:06:04.258Z,22.46
2023-04-11T11:08:43.644Z,23.47
2023-04-11T11:11:14.088Z,23.97
2023-04-11T11:13:45.064Z,22.15
2023-04-11T11:16:18.003Z,23.06
2023-04-11T11:18:49.194Z,24.82
2023-04-11T11:21:26.746Z,24.29
2023-04-11T11:24:00.574Z,22.41
2023-04-11T11:26:44.453Z,25.26
2023-04-11T11:29:14.137Z,24.66
2023-04-11T11:31:48.047Z,24.04
2023-04-11T11:34:31.200Z,24.54
2023-04-11T11:37:03.189Z,25.16
2023-04-11T11:39:32.433Z,24.02
2023-04-11T11:42:00.807Z,25.59
2023-04-11T11:44:30.346Z,23.97
2023-04-11T11:47:06.391Z,23.17
2023-04-11T11:49:54.932Z,24.16
2023-04-11T11:52:45.214Z,22.67
2023-04-11T11:55:19.384Z,20.56
2023-04-11T11:57:50.251Z,19.87
2023-04-11T12:00:28.492Z,19.96
2023-04-11T12:03:00.094Z,19.85
2023-04-11T12:05:31.445Z,19.19
2023-04-11T12:08:02.387Z,20.15
2023-04-11T12:10:45.924Z,20.43
2023-04-11T12:13:15.333Z,19.68
2023-04-11T12:15:51.939Z,20.04
2023-04-11T12:18:22.295Z,20.79
2023-04-11T12:20:51.573Z,21.33
2023-04-11T12:23:20.287Z,21.69
2023-04-11T12:25:48.923Z,20.39
2023-04-11T12:28:17.053Z,20.71
2023-04-11T12:30:47.057Z,20.42
2023-04-11T12:33:16.625Z,20.99
2023-04-11T12:35:46.223Z,21.40
2023-04-11T12:38:17.436Z,20.09
2023-04-11T12:40:47.244Z,20.02
2023-04-11T12:43:16.869Z,19.55
2023-04-11T12:45:51.321Z,20.42
2023-04-11T12:48:26.451Z,21.53
2023-04-11T12:50:54.863Z,22.08
2023-04-11T12:53:25.129Z,20.99
2023-04-11T12:55:53.145Z,21.33
2023-04-11T12:58:21.616Z,22.26
2023-04-11T13:00:49.615Z,21.97
2023-04-11T13:03:17.853Z,21.49
2023-04-11T13:05:46.384Z,20.90
2023-04-11T13:08:14.582Z,20.66
2023-04-11T13:10:44.118Z,20.33
2023-04-11T13:13:18.287Z,20.60
2023-04-11T13:15:46.884Z,20.34
2023-04-11T13:18:15.886Z,20.45
2023-04-11T13:20:45.223Z,20.73
2023-04-11T13:23:14.869Z,21.09
2023-04-11T13:25:45.999Z,20.65
2023-04-11T13:28:13.901Z,20.23
2023-04-11T13:30:41.928Z,20.49
2023-04-11T13:33:12.420Z,20.40
2023-04-11T13:35:41.587Z,20.20
2023-04-11T13:38:11.470Z,20.13
2023-04-11T13:40:41.520Z,19.71
2023-04-11T13:43:10.255Z,19.22
2023-04-11T13:45:38.235Z,19.66
2023-04-11T13:48:06.611Z,20.04
2023-04-11T13:50:35.161Z,19.81
2023-04-11T13:53:07.853Z,19.97
2023-04-11T13:55:36.614Z,19.28
2023-04-11T13:58:05.231Z,19.37
2023-04-11T14:00:38.329Z,18.88
2023-04-11T14:03:17.557Z,19.05
2023-04-11T14:05:48.388Z,19.11
2023-04-11T14:08:17.539Z,19.21
2023-04-11T14:10:45.552Z,18.57
2023-04-11T14:13:15.834Z,18.98
2023-04-11T14:15:47.636Z,18.42
2023-04-11T14:18:18.398Z,18.23
2023-04-11T14:20:49.812Z,18.12
2023-04-11T14:23:19.318Z,17.59
2023-04-11T14:25:50.417Z,17.39
2023-04-11T14:28:18.928Z,16.80
2023-04-11T14:30:47.567Z,16.84
2023-04-11T14:33:15.937Z,16.82
2023-04-11T14:35:47.412Z,16.59
2023-04-11T14:38:16.217Z,16.59
2023-04-11T14:40:44.752Z,16.41
2023-04-11T14:43:12.889Z,15.56
2023-04-11T14:45:41.425Z,15.39
2023-04-11T14:48:09.359Z,15.23
2023-04-11T14:50:37.330Z,15.32
2023-04-11T14:53:05.703Z,15.29
2023-04-11T14:55:33.928Z,14.42
2023-04-11T14:58:01.882Z,14.62
2023-04-11T15:00:33.429Z,14.18
2023-04-11T15:03:01.937Z,13.88
2023-04-11T15:05:30.389Z,13.51
2023-04-11T15:07:58.351Z,13.61
2023-04-11T15:10:26.727Z,13.29
2023-04-11T15:12:54.968Z,12.47
2023-04-11T15:15:23.009Z,12.74
2023-04-11T15:18:28.197Z,12.25
2023-04-11T15:20:58.087Z,12.38
2023-04-11T15:23:26.319Z,12.70
2023-04-11T15:26:01.340Z,12.76
2023-04-11T15:28:36.033Z,13.14
2023-04-11T15:31:05.884Z,12.53
2023-04-11T15:33:34.508Z,12.54
2023-04-11T15:36:02.631Z,12.62
2023-04-11T15:38:32.346Z,12.80
2023-04-11T15:41:00.733Z,12.32
2023-04-11T15:43:28.606Z,11.74
2023-04-11T15:48:25.068Z,12.38
2023-04-11T15:50:53.015Z,11.92
2023-04-11T15:53:21.119Z,12.12
2023-04-11T15:55:49.548Z,11.95
2023-04-11T15:58:18.536Z,11.50
2023-04-11T16:00:47.341Z,11.31
2023-04-11T16:03:16.865Z,11.36
2023-04-11T16:05:45.870Z,11.19
2023-04-11T16:08:13.876Z,10.99
2023-04-11T16:10:42.206Z,11.54
2023-04-11T16:13:10.887Z,11.71
2023-04-11T16:15:38.798Z,11.33
2023-04-11T16:18:07.296Z,11.52
2023-04-11T16:20:35.311Z,11.44
2023-04-11T16:23:03.506Z,11.24
2023-04-11T16:25:31.977Z,11.69
2023-04-11T16:27:59.876Z,11.46
2023-04-11T16:30:29.464Z,11.53
2023-04-11T16:32:58.064Z,12.08
2023-04-11T16:35:26.192Z,11.86
2023-04-11T16:37:54.526Z,11.67
2023-04-11T16:40:22.885Z,11.48
2023-04-11T16:42:50.963Z,11.79
2023-04-11T16:45:19.027Z,11.94
2023-04-11T16:47:47.429Z,11.77
2023-04-11T16:50:16.125Z,11.87
2023-04-11T16:52:43.988Z,11.73
2023-04-11T16:55:12.429Z,11.93
2023-04-11T16:57:40.624Z,12.23
2023-04-11T17:00:18.762Z,12.17
2023-04-11T17:02:47.572Z,11.47
2023-04-11T17:05:15.815Z,11.65
2023-04-11T17:07:44.002Z,12.08
2023-04-11T17:10:12.520Z,11.74
2023-04-11T17:12:40.621Z,11.68
2023-04-11T17:15:09.107Z,11.60
2023-04-11T17:17:37.572Z,11.82
2023-04-11T17:20:09.906Z,12.29
2023-04-11T17:22:41.669Z,11.84
2023-04-11T17:25:10.321Z,11.93
2023-04-11T17:27:39.188Z,11.70
2023-04-11T17:30:09.770Z,12.15
2023-04-11T17:32:38.383Z,11.98
2023-04-11T17:35:07.418Z,12.01
2023-04-11T17:37:36.180Z,12.13
2023-04-11T17:40:11.133Z,12.07
2023-04-11T17:42:39.603Z,12.17
2023-04-11T17:45:17.836Z,12.08
2023-04-11T17:47:47.848Z,11.92
2023-04-11T17:50:16.763Z,12.18
2023-04-11T17:52:46.400Z,12.27
2023-04-11T17:55:17.074Z,11.81
2023-04-11T17:57:46.566Z,12.11
2023-04-11T18:00:23.099Z,11.70
2023-04-11T18:02:54.773Z,11.69
2023-04-11T18:05:25.663Z,11.72
2023-04-11T18:07:57.509Z,11.73
2023-04-11T18:10:27.718Z,11.85
2023-04-11T18:12:57.279Z,11.35
2023-04-11T18:15:26.380Z,11.25
2023-04-11T18:17:54.781Z,11.18
2023-04-11T18:20:23.373Z,11.40
2023-04-11T18:22:54.906Z,11.00
2023-04-11T18:25:23.549Z,11.11
2023-04-11T18:27:51.657Z,11.02
2023-04-11T18:30:19.894Z,11.09
2023-04-11T18:32:50.432Z,11.28
2023-04-11T18:35:18.938Z,11.23
2023-04-11T18:37:47.354Z,10.97
2023-04-11T18:40:16.723Z,11.13
2023-04-11T18:42:48.288Z,11.23
2023-04-11T18:45:23.263Z,10.92
2023-04-11T18:47:51.518Z,10.80
2023-04-11T18:50:20.416Z,10.67
2023-04-11T18:52:52.592Z,10.62
2023-04-11T18:55:23.449Z,10.99
2023-04-11T18:57:55.670Z,11.03
2023-04-11T19:00:28.408Z,11.00
2023-04-11T19:02:59.989Z,11.14
2023-04-11T19:05:30.792Z,10.72
2023-04-11T19:08:00.560Z,10.79
2023-04-11T19:10:30.565Z,10.58
2023-04-11T19:12:59.002Z,10.67
2023-04-11T19:15:27.216Z,10.54
2023-04-11T19:17:56.322Z,10.91
2023-04-11T19:20:27.374Z,10.72
2023-04-11T19:22:56.182Z,10.20
2023-04-11T19:25:24.577Z,10.21
2023-04-11T19:27:52.573Z,10.21
2023-04-11T19:30:21.221Z,10.57
2023-04-11T19:32:51.063Z,10.14
2023-04-11T19:35:21.798Z,9.77
2023-04-11T19:37:50.210Z,9.91
2023-04-11T19:40:18.993Z,10.04
2023-04-11T19:42:47.506Z,9.84
2023-04-11T19:45:16.215Z,9.93
2023-04-11T19:47:44.452Z,9.91
2023-04-11T19:50:13.493Z,10.36
2023-04-11T19:52:44.613Z,10.39
2023-04-11T19:55:12.833Z,10.61
2023-04-11T19:57:44.087Z,10.65
2023-04-11T20:00:14.289Z,10.46
2023-04-11T20:02:46.407Z,10.34
2023-04-11T20:05:16.681Z,10.72
2023-04-11T20:07:46.390Z,10.75
2023-04-11T20:10:15.545Z,10.54
2023-04-11T20:12:43.699Z,10.80
2023-04-11T20:15:12.287Z,10.74
2023-04-11T20:17:40.569Z,10.77
2023-04-11T20:20:09.200Z,10.59
2023-04-11T20:22:38.564Z,10.21
2023-04-11T20:25:08.460Z,9.67
2023-04-11T20:27:37.522Z,9.83
2023-04-11T20:30:13.080Z,9.74
2023-04-11T20:32:41.849Z,9.34
2023-04-11T20:35:12.451Z,8.88
2023-04-11T20:37:43.925Z,9.24
2023-04-11T20:40:14.349Z,9.21
2023-04-11T20:42:47.764Z,8.90
2023-04-11T20:45:20.919Z,9.08
2023-04-11T20:47:50.593Z,8.82
2023-04-11T20:50:20.549Z,8.72
2023-04-11T20:52:54.145Z,8.91
2023-04-11T20:55:22.507Z,9.40
2023-04-11T20:57:50.934Z,9.26
2023-04-11T21:00:20.145Z,9.35
2023-04-11T21:02:50.735Z,9.36
2023-04-11T21:05:25.172Z,9.32
2023-04-11T21:07:54.700Z,9.53
2023-04-11T21:10:22.980Z,9.42
2023-04-11T21:12:54.560Z,9.33
2023-04-11T21:15:23.342Z,9.07
2023-04-11T21:17:52.696Z,9.32
2023-04-11T21:20:22.523Z,8.99
2023-04-11T21:22:55.718Z,8.90
2023-04-11T21:25:25.498Z,8.76
2023-04-11T21:27:54.815Z,8.54
2023-04-11T21:30:23.912Z,8.58
2023-04-11T21:32:52.587Z,8.50
2023-04-11T21:35:21.958Z,8.49
2023-04-11T21:37:51.429Z,8.65
2023-04-11T21:40:19.763Z,8.01
2023-04-11T21:42:48.351Z,7.98
2023-04-11T21:45:16.603Z,8.15
2023-04-11T21:47:44.789Z,8.01
2023-04-11T21:50:13.752Z,8.15
2023-04-11T21:52:41.734Z,8.28
2023-04-11T21:55:10.113Z,8.10
2023-04-11T21:57:38.432Z,8.20
2023-04-11T22:00:08.141Z,8.00
2023-04-11T22:02:40.687Z,7.96
2023-04-11T22:05:09.630Z,8.10
2023-04-11T22:07:46.827Z,7.72
2023-04-11T22:10:22.639Z,7.34
2023-04-11T22:12:54.051Z,7.46
2023-04-11T22:15:24.324Z,7.69
2023-04-11T22:17:54.793Z,7.55
2023-04-11T22:20:23.133Z,7.59
2023-04-11T22:22:51.146Z,7.44
2023-04-11T22:25:22.606Z,7.42
2023-04-11T22:27:54.575Z,7.13
2023-04-11T22:30:23.697Z,7.21
2023-04-11T22:32:54.279Z,7.39
2023-04-11T22:35:25.132Z,7.52
2023-04-11T22:37:57.352Z,7.29
2023-04-11T22:40:25.350Z,6.94
2023-04-11T22:42:54.340Z,7.03
2023-04-11T22:45:23.458Z,7.07
2023-04-11T22:47:55.786Z,6.76
2023-04-11T22:50:24.131Z,6.68
2023-04-11T22:52:52.043Z,6.64
2023-04-11T22:55:21.312Z,6.71
2023-04-11T22:57:49.716Z,6.56
2023-04-11T23:00:19.151Z,6.74
2023-04-11T23:02:47.401Z,6.40
2023-04-11T23:05:16.968Z,6.81
2023-04-11T23:07:44.899Z,6.89
2023-04-11T23:10:15.206Z,6.81
2023-04-11T23:12:44.625Z,7.07
2023-04-11T23:15:12.736Z,6.71
2023-04-11T23:17:48.010Z,7.09
2023-04-11T23:20:17.730Z,7.04
2023-04-11T23:22:45.756Z,6.69
2023-04-11T23:25:15.429Z,6.73
2023-04-11T23:27:44.545Z,6.77
2023-04-11T23:30:13.266Z,6.63
2023-04-11T23:32:41.944Z,6.97
2023-04-11T23:35:10.941Z,7.01
2023-04-11T23:37:39.203Z,7.00
2023-04-11T23:40:11.076Z,6.90
2023-04-11T23:42:40.438Z,6.93
2023-04-11T23:45:09.274Z,7.07
2023-04-11T23:47:37.935Z,6.69
2023-04-11T23:50:06.564Z,6.65
2023-04-11T23:52:34.780Z,6.81
2023-04-11T23:55:02.733Z,6.68
2023-04-11T23:57:31.024Z,6.86
2023-04-11T23:59:59.020Z,6.93
